Time;durP1;ratioP1;P1;durP2;ratioP2;P2;SDS_P1;SDS_P2;PMS_P1;PMS_P2;Temp;Humidity;BMP_temperature;BMP_pressure;BME280_temperature;BME280_humidity;BME280_pressure;Samples;Min_cycle;Max_cycle;Signal;HPM_P1;HPM_P2
2024/02/18 00:00:35;;;;;;;17.90;12.20;;;11.30;99.90;;;;;;5008531;28;20499;-51
2024/02/18 00:03:00;;;;;;;18.17;12.77;;;11.20;99.90;;;;;;5007318;28;20427;-47
2024/02/18 00:05:26;;;;;;;16.33;11.95;;;11.20;99.90;;;;;;5007767;28;20044;-48
2024/02/18 00:07:51;;;;;;;18.20;12.75;;;11.20;99.90;;;;;;5008582;28;20514;-50
2024/02/18 00:10:17;;;;;;;19.35;13.82;;;11.20;99.90;;;;;;5008425;28;20029;-53
2024/02/18 00:12:42;;;;;;;17.00;12.95;;;11.20;99.90;;;;;;5007990;28;20096;-48
2024/02/18 00:15:09;;;;;;;128.93;80.45;;;11.20;99.90;;;;;;5008354;28;20521;-55
2024/02/18 00:17:34;;;;;;;28.27;17.02;;;11.20;99.90;;;;;;5008503;28;20026;-48
2024/02/18 00:20:00;;;;;;;26.38;16.08;;;11.20;99.90;;;;;;5007172;28;20030;-49
2024/02/18 00:22:25;;;;;;;21.27;14.15;;;11.20;99.90;;;;;;5009855;28;20034;-45
2024/02/18 00:24:51;;;;;;;22.13;13.38;;;11.30;99.90;;;;;;5008158;28;20037;-43
2024/02/18 00:27:17;;;;;;;16.17;12.95;;;11.30;99.90;;;;;;5008057;28;20030;-46
2024/02/18 00:29:42;;;;;;;23.92;14.43;;;11.30;99.90;;;;;;5008443;28;20037;-48
2024/02/18 00:32:08;;;;;;;18.10;13.23;;;11.30;99.90;;;;;;5008507;28;20490;-51
2024/02/18 00:34:33;;;;;;;21.70;13.50;;;11.20;99.90;;;;;;5008395;28;20030;-53
2024/02/18 00:36:59;;;;;;;19.38;14.20;;;11.20;99.90;;;;;;5009677;28;20030;-48
2024/02/18 00:39:24;;;;;;;21.20;13.20;;;11.20;99.90;;;;;;5012177;28;20076;-49
2024/02/18 00:41:50;;;;;;;20.73;12.23;;;11.20;99.90;;;;;;5009867;28;20034;-46
2024/02/18 00:44:17;;;;;;;23.02;13.68;;;11.20;99.90;;;;;;5012101;28;20030;-45
2024/02/18 00:46:42;;;;;;;21.77;13.82;;;11.20;99.90;;;;;;5011910;28;20034;-43
2024/02/18 00:49:08;;;;;;;18.20;12.75;;;11.20;99.90;;;;;;5011999;28;20050;-48
2024/02/18 00:51:34;;;;;;;18.10;12.63;;;11.20;99.90;;;;;;5011988;28;20045;-48
2024/02/18 00:53:59;;;;;;;18.58;13.35;;;11.10;99.90;;;;;;5011727;28;20121;-45
2024/02/18 00:56:25;;;;;;;16.73;12.10;;;11.10;99.90;;;;;;5011528;28;20057;-52
2024/02/18 00:58:52;;;;;;;18.13;13.13;;;11.10;99.90;;;;;;5011361;28;20026;-46
2024/02/18 01:01:18;;;;;;;20.65;12.50;;;11.00;99.90;;;;;;5011539;28;20026;-45
2024/02/18 01:03:45;;;;;;;17.88;12.93;;;11.00;99.90;;;;;;5010402;28;20025;-49
2024/02/18 01:06:11;;;;;;;22.10;14.30;;;11.00;99.90;;;;;;5012743;28;20144;-45
2024/02/18 01:08:37;;;;;;;20.27;13.55;;;11.00;99.90;;;;;;5013064;28;20030;-45
2024/02/18 01:11:03;;;;;;;21.30;13.63;;;11.00;99.90;;;;;;5013118;28;20033;-45
2024/02/18 01:13:28;;;;;;;18.80;13.55;;;10.80;99.90;;;;;;5014041;28;20503;-45
2024/02/18 01:15:54;;;;;;;21.40;14.27;;;10.80;99.90;;;;;;5014206;28;20041;-42
2024/02/18 01:18:20;;;;;;;22.50;14.55;;;10.70;99.90;;;;;;5014153;28;20521;-51
2024/02/18 01:20:45;;;;;;;24.65;14.65;;;10.70;99.90;;;;;;5014062;28;20021;-48
2024/02/18 01:23:11;;;;;;;25.65;15.07;;;10.80;99.90;;;;;;5014186;28;20137;-43
2024/02/18 01:25:37;;;;;;;18.20;13.50;;;10.80;99.90;;;;;;5013987;28;20067;-47
2024/02/18 01:28:03;;;;;;;19.30;13.73;;;10.80;99.90;;;;;;5013855;28;20040;-45
2024/02/18 01:30:29;;;;;;;21.27;14.18;;;10.80;99.90;;;;;;5014265;28;20022;-46
2024/02/18 01:32:54;;;;;;;18.73;13.85;;;10.70;99.90;;;;;;5013952;28;20101;-44
2024/02/18 01:35:21;;;;;;;33.60;21.52;;;10.70;99.90;;;;;;5013727;28;20290;-46
2024/02/18 01:37:47;;;;;;;42.10;25.95;;;10.70;99.90;;;;;;5013910;28;20101;-45
2024/02/18 01:40:13;;;;;;;20.38;15.63;;;10.70;99.90;;;;;;5013837;28;20113;-45
2024/02/18 01:42:39;;;;;;;21.75;15.32;;;10.70;99.90;;;;;;5012344;28;20516;-48
2024/02/18 01:45:06;;;;;;;21.05;14.43;;;10.70;99.90;;;;;;5013666;28;20020;-45
2024/02/18 01:47:33;;;;;;;21.42;14.95;;;10.70;99.90;;;;;;5013786;28;20041;-45
2024/02/18 01:49:59;;;;;;;20.55;14.90;;;10.60;99.90;;;;;;5013704;28;20029;-44
2024/02/18 01:52:25;;;;;;;21.55;14.73;;;10.60;99.90;;;;;;5013526;28;20034;-45
2024/02/18 01:54:51;;;;;;;22.25;15.07;;;10.50;99.90;;;;;;5012604;28;20265;-46
2024/02/18 01:57:17;;;;;;;20.58;14.43;;;10.60;99.90;;;;;;5013472;28;20029;-47
2024/02/18 01:59:43;;;;;;;23.13;14.23;;;10.60;99.90;;;;;;5013540;28;20037;-47
2024/02/18 02:02:09;;;;;;;17.00;13.02;;;10.60;99.90;;;;;;5013334;28;20025;-51
2024/02/18 02:04:34;;;;;;;21.70;14.00;;;10.60;99.90;;;;;;5013330;28;20045;-44
2024/02/18 02:07:00;;;;;;;19.42;13.40;;;10.60;99.90;;;;;;5013267;28;20025;-46
2024/02/18 02:09:26;;;;;;;21.35;13.57;;;10.70;99.90;;;;;;5013211;28;20018;-46
2024/02/18 02:11:52;;;;;;;21.55;14.02;;;10.80;99.90;;;;;;5012926;28;20557;-47
2024/02/18 02:14:17;;;;;;;19.55;13.57;;;10.70;99.90;;;;;;5012968;28;20037;-47
2024/02/18 02:16:43;;;;;;;22.50;13.05;;;10.70;99.90;;;;;;5012887;28;20022;-46
2024/02/18 02:19:09;;;;;;;23.27;13.82;;;10.60;99.90;;;;;;5013172;28;20506;-45
2024/02/18 02:21:34;;;;;;;26.35;15.98;;;10.60;99.90;;;;;;5012971;28;20033;-48
2024/02/18 02:24:00;;;;;;;26.08;13.73;;;10.70;99.90;;;;;;5012855;28;20376;-52
2024/02/18 02:26:29;;;;;;;19.60;13.23;;;10.70;99.90;;;;;;5012558;28;20092;-45
2024/02/18 02:29:17;;;;;;;21.52;12.45;;;10.60;99.90;;;;;;5013183;28;20026;-45
2024/02/18 02:31:44;;;;;;;25.73;13.30;;;10.60;99.90;;;;;;5013437;28;20164;-47
2024/02/18 02:34:13;;;;;;;20.67;13.18;;;10.60;99.90;;;;;;5012927;28;20022;-48
2024/02/18 02:36:39;;;;;;;20.23;13.45;;;10.50;99.90;;;;;;5013000;28;20396;-46
2024/02/18 02:39:05;;;;;;;19.20;13.70;;;10.50;99.90;;;;;;5012726;28;20025;-47
2024/02/18 02:41:30;;;;;;;20.40;12.98;;;10.50;99.90;;;;;;5012719;28;20026;-50
2024/02/18 02:43:56;;;;;;;18.65;13.35;;;10.50;99.90;;;;;;5012539;28;20109;-45
2024/02/18 02:46:21;;;;;;;20.45;13.35;;;10.50;99.90;;;;;;5012428;28;20030;-46
2024/02/18 02:48:47;;;;;;;17.52;12.63;;;10.50;99.90;;;;;;5012574;28;20440;-48
2024/02/18 02:51:13;;;;;;;24.20;14.70;;;10.40;99.90;;;;;;5012591;28;20029;-50
2024/02/18 02:53:39;;;;;;;18.08;12.90;;;10.50;99.90;;;;;;5012643;28;20026;-49
2024/02/18 02:56:06;;;;;;;18.88;12.25;;;10.40;99.90;;;;;;5012386;28;20450;-45
2024/02/18 02:58:32;;;;;;;17.15;12.40;;;10.40;99.90;;;;;;5012029;28;20026;-49
2024/02/18 03:00:57;;;;;;;17.83;12.98;;;10.50;99.90;;;;;;5012522;28;20030;-48
2024/02/18 03:03:24;;;;;;;20.48;13.45;;;10.50;99.90;;;;;;5012139;28;20030;-48
2024/02/18 03:05:49;;;;;;;18.25;13.05;;;10.40;99.90;;;;;;5011923;28;20026;-45
2024/02/18 03:08:15;;;;;;;22.02;12.50;;;10.40;99.90;;;;;;5012210;28;20660;-46
2024/02/18 03:10:41;;;;;;;17.92;13.35;;;10.50;99.90;;;;;;5011856;28;20029;-50
2024/02/18 03:13:07;;;;;;;18.88;13.95;;;10.40;99.90;;;;;;5012165;28;20022;-48
2024/02/18 03:15:33;;;;;;;21.38;14.32;;;10.30;99.90;;;;;;5011753;28;20080;-47
2024/02/18 03:17:58;;;;;;;19.10;13.75;;;10.20;99.90;;;;;;5011853;28;20049;-49
2024/02/18 03:20:24;;;;;;;19.10;12.80;;;10.20;99.90;;;;;;5011873;28;20582;-47
2024/02/18 03:22:50;;;;;;;21.08;14.30;;;10.20;99.90;;;;;;5011893;28;20447;-48
2024/02/18 03:25:17;;;;;;;18.10;13.32;;;10.20;99.90;;;;;;5010431;28;20025;-46
2024/02/18 03:27:42;;;;;;;22.08;13.43;;;10.10;99.90;;;;;;5011969;28;20606;-51
2024/02/18 03:30:09;;;;;;;21.52;13.95;;;10.10;99.90;;;;;;5011854;28;20112;-46
2024/02/18 03:32:37;;;;;;;19.85;13.90;;;10.10;99.90;;;;;;5011553;28;20037;-49
2024/02/18 03:35:06;;;;;;;18.80;13.98;;;10.30;99.90;;;;;;5011475;28;20030;-48
2024/02/18 03:37:32;;;;;;;23.23;14.57;;;10.20;99.90;;;;;;5011715;28;20049;-47
2024/02/18 03:39:58;;;;;;;23.92;14.00;;;10.20;99.90;;;;;;5011919;28;20426;-45
2024/02/18 03:42:23;;;;;;;19.85;13.88;;;10.20;99.90;;;;;;5010318;28;20040;-49
2024/02/18 03:44:49;;;;;;;18.20;14.02;;;10.10;99.90;;;;;;5010225;28;20113;-51
2024/02/18 03:47:15;;;;;;;22.13;14.73;;;10.00;99.90;;;;;;5011397;28;20028;-48
2024/02/18 03:49:41;;;;;;;21.45;15.88;;;9.90;99.90;;;;;;5011527;28;20093;-48
2024/02/18 03:52:07;;;;;;;23.05;14.55;;;9.90;99.90;;;;;;5011548;28;20105;-50
2024/02/18 03:54:33;;;;;;;19.60;13.50;;;9.90;99.90;;;;;;5010193;28;20117;-46
2024/02/18 03:56:59;;;;;;;18.73;14.00;;;9.80;99.90;;;;;;5012013;28;20033;-45
2024/02/18 03:59:25;;;;;;;18.20;13.98;;;9.70;99.90;;;;;;5011547;28;20029;-46
2024/02/18 04:01:51;;;;;;;17.58;13.60;;;9.70;99.90;;;;;;5011372;28;20488;-45
2024/02/18 04:04:16;;;;;;;18.60;13.18;;;9.60;99.90;;;;;;5011450;28;20022;-46
2024/02/18 04:06:43;;;;;;;17.63;14.00;;;9.60;99.90;;;;;;5011519;28;20026;-46
2024/02/18 04:09:11;;;;;;;18.00;12.88;;;9.60;99.90;;;;;;5012669;28;20022;-46
2024/02/18 04:11:36;;;;;;;19.27;14.30;;;9.60;99.90;;;;;;5013691;28;20038;-46
2024/02/18 04:14:02;;;;;;;21.85;14.80;;;9.70;99.90;;;;;;5016377;28;20045;-48
2024/02/18 04:16:28;;;;;;;23.38;14.15;;;9.70;99.90;;;;;;5014299;28;20030;-45
2024/02/18 04:18:53;;;;;;;19.92;13.20;;;9.60;99.90;;;;;;5015415;28;20022;-44
2024/02/18 04:21:19;;;;;;;23.95;13.73;;;9.60;99.90;;;;;;5016575;28;20112;-45
2024/02/18 04:23:44;;;;;;;15.80;13.27;;;9.60;99.90;;;;;;5016106;28;20110;-45
2024/02/18 04:26:10;;;;;;;18.95;13.13;;;9.60;99.90;;;;;;5013599;28;20022;-46
2024/02/18 04:28:36;;;;;;;15.60;13.02;;;9.70;99.90;;;;;;5015356;28;20041;-45
2024/02/18 04:31:02;;;;;;;20.60;13.25;;;9.60;99.90;;;;;;5015155;28;20029;-47
2024/02/18 04:33:27;;;;;;;17.35;13.10;;;9.40;99.90;;;;;;5015044;28;20033;-45
2024/02/18 04:35:53;;;;;;;23.40;13.45;;;9.40;99.90;;;;;;5014757;28;20491;-47
2024/02/18 04:38:18;;;;;;;18.02;12.48;;;9.40;99.90;;;;;;5015142;28;20102;-47
2024/02/18 04:40:44;;;;;;;18.30;12.88;;;9.30;99.90;;;;;;5015327;28;20056;-51
2024/02/18 04:43:09;;;;;;;20.50;13.77;;;9.20;99.90;;;;;;5014817;28;20026;-47
2024/02/18 04:45:35;;;;;;;20.63;13.38;;;9.10;99.90;;;;;;5014615;28;20022;-48
2024/02/18 04:48:01;;;;;;;20.38;13.18;;;9.00;99.90;;;;;;5014697;28;20026;-49
2024/02/18 04:50:27;;;;;;;19.95;14.07;;;9.00;99.90;;;;;;5014608;28;20030;-45
2024/02/18 04:52:53;;;;;;;19.98;13.82;;;9.00;99.90;;;;;;5014578;28;20476;-46
2024/02/18 04:55:18;;;;;;;21.73;14.85;;;8.90;99.90;;;;;;5014445;28;20104;-46
2024/02/18 04:57:44;;;;;;;19.90;13.68;;;8.90;99.90;;;;;;5014330;28;20033;-47
2024/02/18 05:00:10;;;;;;;19.02;14.27;;;8.90;99.90;;;;;;5013275;28;20487;-46
2024/02/18 05:02:36;;;;;;;17.65;14.77;;;8.90;99.90;;;;;;5014429;28;20037;-47
2024/02/18 05:05:02;;;;;;;21.70;14.15;;;8.80;99.90;;;;;;5014414;28;20124;-49
2024/02/18 05:07:28;;;;;;;17.08;13.68;;;8.80;99.90;;;;;;5014348;28;20113;-45
2024/02/18 05:09:53;;;;;;;19.65;14.05;;;8.70;99.90;;;;;;5014154;28;20029;-47
2024/02/18 05:12:18;;;;;;;23.52;15.65;;;8.70;99.90;;;;;;5014451;28;20045;-51
2024/02/18 05:14:44;;;;;;;26.33;16.40;;;8.60;99.90;;;;;;5014198;28;20037;-49
2024/02/18 05:17:10;;;;;;;22.60;16.17;;;8.70;99.90;;;;;;5014086;28;20038;-47
2024/02/18 05:19:36;;;;;;;27.08;16.23;;;8.60;99.90;;;;;;5014450;28;20034;-50
2024/02/18 05:22:01;;;;;;;26.25;16.75;;;8.50;99.90;;;;;;5013985;28;20426;-46
2024/02/18 05:24:27;;;;;;;25.90;17.48;;;8.50;99.90;;;;;;5014438;28;20033;-46
2024/02/18 05:26:52;;;;;;;24.73;16.15;;;8.40;99.90;;;;;;5014067;28;20033;-48
2024/02/18 05:29:18;;;;;;;22.05;16.73;;;8.40;99.90;;;;;;5014337;28;20025;-49
2024/02/18 05:31:43;;;;;;;21.35;16.42;;;8.40;99.90;;;;;;5014348;28;20480;-46
2024/02/18 05:34:09;;;;;;;26.10;17.27;;;8.40;99.90;;;;;;5014088;28;20555;-48
2024/02/18 05:36:34;;;;;;;24.38;17.15;;;8.30;99.90;;;;;;5013941;28;20029;-46
2024/02/18 05:39:00;;;;;;;29.95;18.65;;;8.40;99.90;;;;;;5013902;28;20080;-50
2024/02/18 05:41:25;;;;;;;26.50;17.77;;;8.30;99.90;;;;;;5013881;28;20503;-47
2024/02/18 05:43:51;;;;;;;24.85;17.60;;;8.30;99.90;;;;;;5012618;28;20022;-48
2024/02/18 05:46:17;;;;;;;30.05;16.80;;;8.30;99.90;;;;;;5012356;28;20022;-48
2024/02/18 05:48:43;;;;;;;24.27;17.80;;;8.20;99.90;;;;;;5013615;28;20072;-45
2024/02/18 05:51:08;;;;;;;23.92;17.73;;;8.20;99.90;;;;;;5013471;28;20483;-44
2024/02/18 05:53:34;;;;;;;29.90;20.35;;;8.10;99.90;;;;;;5013604;28;20034;-45
2024/02/18 05:56:00;;;;;;;29.35;18.33;;;8.20;99.90;;;;;;5013681;28;20030;-45
2024/02/18 05:58:25;;;;;;;24.80;17.70;;;8.20;99.90;;;;;;5013828;28;20113;-44
2024/02/18 06:00:51;;;;;;;28.05;18.15;;;8.20;99.90;;;;;;5013934;28;20486;-44
2024/02/18 06:03:17;;;;;;;25.55;19.05;;;8.10;99.90;;;;;;5013841;28;20030;-44
2024/02/18 06:05:43;;;;;;;24.80;18.10;;;8.00;99.90;;;;;;5013616;28;20028;-45
2024/02/18 06:08:08;;;;;;;26.77;17.92;;;8.00;99.90;;;;;;5013071;28;20108;-46
2024/02/18 06:10:34;;;;;;;24.92;17.42;;;8.10;99.90;;;;;;5012902;28;20026;-46
2024/02/18 06:13:00;;;;;;;24.77;17.55;;;8.10;99.90;;;;;;5012091;28;20183;-46
2024/02/18 06:15:26;;;;;;;27.38;18.45;;;8.00;99.90;;;;;;5013513;28;20022;-43
2024/02/18 06:17:56;;;;;;;23.80;18.95;;;8.00;99.90;;;;;;5013291;28;20057;-45
2024/02/18 06:20:22;;;;;;;28.83;17.30;;;8.00;99.90;;;;;;5013019;28;20022;-45
2024/02/18 06:22:47;;;;;;;25.38;17.40;;;7.90;99.90;;;;;;5012846;28;20032;-45
2024/02/18 06:25:13;;;;;;;22.70;17.50;;;7.90;99.90;;;;;;5012582;28;20026;-46
2024/02/18 06:27:39;;;;;;;27.42;18.25;;;7.90;99.90;;;;;;5012750;28;20084;-45
2024/02/18 06:30:08;;;;;;;25.27;17.95;;;7.80;99.90;;;;;;5011406;28;20129;-47
2024/02/18 06:32:34;;;;;;;30.80;17.50;;;7.70;99.90;;;;;;5012264;28;20168;-46
2024/02/18 06:34:59;;;;;;;23.00;17.08;;;7.70;99.90;;;;;;5011940;28;20022;-45
2024/02/18 06:37:25;;;;;;;26.95;18.95;;;7.60;99.90;;;;;;5012933;28;20557;-47
2024/02/18 06:39:50;;;;;;;29.10;19.48;;;7.60;99.90;;;;;;5013084;28;20426;-46
2024/02/18 06:42:16;;;;;;;33.38;19.45;;;7.60;99.90;;;;;;5011767;28;20111;-45
2024/02/18 06:44:41;;;;;;;27.85;20.48;;;7.70;99.90;;;;;;5013205;28;20100;-50
2024/02/18 06:47:07;;;;;;;24.27;18.40;;;7.70;99.90;;;;;;5012645;28;20507;-45
2024/02/18 06:49:33;;;;;;;25.90;17.92;;;7.80;99.90;;;;;;5012503;28;20496;-46
2024/02/18 06:51:58;;;;;;;25.48;17.27;;;7.90;99.90;;;;;;5012462;28;20022;-51
2024/02/18 06:54:24;;;;;;;23.75;18.30;;;8.00;99.90;;;;;;5012237;28;20108;-45
2024/02/18 06:56:49;;;;;;;30.42;18.17;;;8.10;99.90;;;;;;5012420;28;20218;-45
2024/02/18 06:59:16;;;;;;;26.08;17.08;;;8.10;99.90;;;;;;5012361;28;20673;-45
2024/02/18 07:01:42;;;;;;;27.10;17.35;;;8.20;99.90;;;;;;5012170;28;20022;-44
2024/02/18 07:04:08;;;;;;;23.00;16.30;;;8.10;99.90;;;;;;5012120;28;20022;-44
2024/02/18 07:06:33;;;;;;;27.55;17.25;;;8.20;99.90;;;;;;5012603;28;20033;-46
2024/02/18 07:08:59;;;;;;;23.77;17.40;;;8.40;99.90;;;;;;5010966;28;20018;-45
2024/02/18 07:11:25;;;;;;;21.65;16.73;;;8.50;99.90;;;;;;5011634;28;20112;-46
2024/02/18 07:13:52;;;;;;;20.70;16.73;;;8.60;99.90;;;;;;5011979;28;20021;-48
2024/02/18 07:16:18;;;;;;;22.60;16.10;;;8.80;99.90;;;;;;5011869;28;20076;-46
2024/02/18 07:18:43;;;;;;;24.17;14.77;;;9.10;99.90;;;;;;5012105;28;20033;-47
2024/02/18 07:21:09;;;;;;;19.13;15.27;;;9.30;99.90;;;;;;5011866;28;20503;-51
2024/02/18 07:23:34;;;;;;;21.20;15.05;;;9.40;99.90;;;;;;5012325;28;20111;-48
2024/02/18 07:26:00;;;;;;;22.08;15.25;;;9.50;99.90;;;;;;5011735;28;20355;-48
2024/02/18 07:28:26;;;;;;;17.48;14.52;;;9.50;99.90;;;;;;5011963;28;20026;-48
2024/02/18 07:30:52;;;;;;;19.67;14.73;;;9.60;99.90;;;;;;5011829;28;20014;-48
2024/02/18 07:33:17;;;;;;;22.00;15.00;;;9.50;99.90;;;;;;5011919;28;20105;-51
2024/02/18 07:35:43;;;;;;;20.25;14.35;;;9.50;99.90;;;;;;5011585;28;20024;-48
2024/02/18 07:38:08;;;;;;;19.15;16.08;;;9.50;99.90;;;;;;5011966;28;20419;-49
2024/02/18 07:40:34;;;;;;;22.17;16.15;;;9.50;99.90;;;;;;5011657;28;20025;-47
2024/02/18 07:43:00;;;;;;;21.52;17.75;;;9.50;99.90;;;;;;5011520;28;20018;-50
2024/02/18 07:45:25;;;;;;;23.85;16.60;;;9.40;99.90;;;;;;5011314;28;20468;-49
2024/02/18 07:47:51;;;;;;;23.02;17.63;;;9.30;99.90;;;;;;5011631;28;20030;-48
2024/02/18 07:50:17;;;;;;;23.50;16.33;;;9.30;99.90;;;;;;5011599;28;20068;-46
2024/02/18 07:52:42;;;;;;;19.80;16.70;;;9.20;99.90;;;;;;5010273;28;20017;-46
2024/02/18 07:55:08;;;;;;;21.75;17.85;;;9.20;99.90;;;;;;5010142;28;20026;-47
2024/02/18 07:57:33;;;;;;;20.52;17.00;;;9.10;99.90;;;;;;5011356;28;20026;-48
2024/02/18 07:59:59;;;;;;;27.27;18.10;;;9.20;99.90;;;;;;5011024;28;20520;-47
2024/02/18 08:02:26;;;;;;;21.00;17.60;;;9.20;99.90;;;;;;4995537;28;20022;-52
2024/02/18 08:04:52;;;;;;;27.50;18.20;;;9.30;99.90;;;;;;5011506;28;20493;-48
2024/02/18 08:07:17;;;;;;;25.50;17.38;;;9.30;99.90;;;;;;5010813;28;20101;-47
2024/02/18 08:09:43;;;;;;;25.08;17.50;;;9.50;99.90;;;;;;5011230;28;20153;-50
2024/02/18 08:12:08;;;;;;;25.85;16.98;;;9.40;99.90;;;;;;5011308;28;20037;-45
2024/02/18 08:14:34;;;;;;;25.05;17.63;;;9.30;99.90;;;;;;5011190;28;20041;-46
2024/02/18 08:16:59;;;;;;;25.02;16.90;;;9.30;99.90;;;;;;5010565;28;20037;-47
2024/02/18 08:19:25;;;;;;;23.58;16.25;;;9.40;99.90;;;;;;5010721;28;20123;-43
2024/02/18 08:21:51;;;;;;;23.27;16.23;;;9.50;99.90;;;;;;5011120;28;20040;-46
2024/02/18 08:24:17;;;;;;;21.33;16.35;;;9.50;99.90;;;;;;5011359;28;20010;-47
2024/02/18 08:26:42;;;;;;;27.23;17.10;;;9.60;99.90;;;;;;5010927;28;20041;-45
2024/02/18 08:29:08;;;;;;;28.73;16.52;;;9.60;99.90;;;;;;5011257;28;20061;-45
2024/02/18 08:31:33;;;;;;;22.27;17.70;;;9.60;99.90;;;;;;5011232;28;20034;-45
2024/02/18 08:34:01;;;;;;;22.00;15.52;;;9.50;99.90;;;;;;5010909;28;20038;-47
2024/02/18 08:36:26;;;;;;;27.70;17.20;;;9.40;99.90;;;;;;5010760;28;20018;-45
2024/02/18 08:38:52;;;;;;;25.88;17.17;;;9.40;99.90;;;;;;5011114;28;20112;-46
2024/02/18 08:41:17;;;;;;;20.40;16.08;;;9.30;99.90;;;;;;5011084;28;20080;-46
2024/02/18 08:43:43;;;;;;;27.15;16.98;;;9.30;99.90;;;;;;5010976;28;20029;-49
2024/02/18 08:46:09;;;;;;;30.13;18.63;;;9.30;99.90;;;;;;5009606;28;20072;-45
2024/02/18 08:48:38;;;;;;;25.80;17.42;;;9.20;99.90;;;;;;5011088;28;20029;-46
2024/02/18 08:51:06;;;;;;;24.42;18.15;;;9.20;99.90;;;;;;5009484;28;20032;-46
2024/02/18 08:53:31;;;;;;;26.73;19.95;;;9.10;99.90;;;;;;5011008;28;20022;-44
2024/02/18 08:55:57;;;;;;;25.17;19.10;;;9.10;99.90;;;;;;5012010;28;20037;-45
2024/02/18 08:58:23;;;;;;;31.05;20.58;;;9.10;99.90;;;;;;5013626;28;20030;-46
2024/02/18 09:00:49;;;;;;;24.98;19.30;;;9.20;99.90;;;;;;5014440;28;20030;-49
2024/02/18 09:03:14;;;;;;;36.25;22.73;;;9.20;99.90;;;;;;5014375;28;20050;-45
2024/02/18 09:05:40;;;;;;;31.30;22.92;;;9.20;99.90;;;;;;5014208;28;20029;-46
2024/02/18 09:08:07;;;;;;;30.98;20.40;;;9.20;99.90;;;;;;5014504;28;20026;-49
2024/02/18 09:10:33;;;;;;;29.35;20.00;;;9.10;99.90;;;;;;5014284;28;20376;-49
2024/02/18 09:13:01;;;;;;;25.23;19.65;;;9.20;99.90;;;;;;5014201;28;20029;-50
2024/02/18 09:15:27;;;;;;;21.05;16.50;;;9.20;99.90;;;;;;5014050;28;20034;-46
2024/02/18 09:17:52;;;;;;;23.33;17.95;;;9.30;99.90;;;;;;5013793;28;20037;-51
2024/02/18 09:20:18;;;;;;;22.67;17.27;;;9.40;99.90;;;;;;5014162;28;20032;-48
2024/02/18 09:22:43;;;;;;;23.63;17.23;;;9.50;99.90;;;;;;5014077;28;20026;-56
2024/02/18 09:25:09;;;;;;;22.38;16.27;;;9.60;99.90;;;;;;5013754;28;20033;-51
2024/02/18 09:27:35;;;;;;;23.17;16.45;;;9.60;99.90;;;;;;5013731;28;20114;-49
2024/02/18 09:30:01;;;;;;;26.75;16.40;;;9.60;99.90;;;;;;5013613;28;20042;-48
2024/02/18 09:32:26;;;;;;;21.42;16.08;;;9.50;99.90;;;;;;5013975;28;20068;-50
2024/02/18 09:34:52;;;;;;;26.02;16.73;;;9.50;99.90;;;;;;5013401;28;20095;-53
2024/02/18 09:37:17;;;;;;;23.60;17.10;;;9.60;99.90;;;;;;5013555;28;20109;-48
2024/02/18 09:39:43;;;;;;;26.95;15.88;;;9.80;99.90;;;;;;5013825;28;20397;-52
2024/02/18 09:42:09;;;;;;;21.17;15.82;;;10.00;99.90;;;;;;5012340;28;20037;-48
2024/02/18 09:44:35;;;;;;;22.83;15.60;;;10.10;99.90;;;;;;5013553;28;20546;-47
2024/02/18 09:47:03;;;;;;;20.08;14.80;;;10.30;99.90;;;;;;5013497;28;20026;-48
2024/02/18 09:49:30;;;;;;;21.67;15.00;;;10.40;99.90;;;;;;5014025;28;20025;-49
2024/02/18 09:51:56;;;;;;;19.83;14.52;;;10.40;99.90;;;;;;5013628;28;20041;-54
2024/02/18 09:54:23;;;;;;;20.70;14.18;;;10.50;99.90;;;;;;5012499;28;20034;-54
2024/02/18 09:56:48;;;;;;;21.58;13.85;;;10.60;99.90;;;;;;4996486;28;20522;-55
2024/02/18 09:59:15;;;;;;;19.85;14.90;;;10.40;99.90;;;;;;5012270;28;20034;-55
2024/02/18 10:01:44;;;;;;;17.80;13.63;;;10.30;99.90;;;;;;5014121;28;20053;-53
2024/02/18 10:04:11;;;;;;;23.33;15.38;;;10.40;99.90;;;;;;5013590;28;20030;-50
2024/02/18 10:06:37;;;;;;;21.98;14.27;;;10.50;99.90;;;;;;5016471;28;20018;-48
2024/02/18 10:09:03;;;;;;;21.58;12.80;;;10.50;99.90;;;;;;5012333;28;20238;-45
2024/02/18 10:11:32;;;;;;;23.55;14.15;;;10.60;99.90;;;;;;5010837;28;20105;-48
2024/02/18 10:13:58;;;;;;;15.52;12.88;;;10.70;99.90;;;;;;5010253;28;20377;-49
2024/02/18 10:16:24;;;;;;;20.20;13.63;;;10.70;99.90;;;;;;5009692;28;20033;-49
2024/02/18 10:18:50;;;;;;;24.20;14.30;;;10.70;99.90;;;;;;5010370;28;20025;-50
2024/02/18 10:21:16;;;;;;;20.25;14.73;;;10.70;99.90;;;;;;5009100;28;20034;-50
2024/02/18 10:23:42;;;;;;;18.30;14.50;;;10.80;99.90;;;;;;5009810;28;20491;-49
2024/02/18 10:26:09;;;;;;;19.73;14.98;;;10.80;99.90;;;;;;5010183;28;20411;-48
2024/02/18 10:28:35;;;;;;;23.05;14.63;;;11.00;99.90;;;;;;5009752;28;20018;-47
2024/02/18 10:31:07;;;;;;;22.35;14.82;;;11.00;99.90;;;;;;5009826;28;20076;-53
2024/02/18 10:33:33;;;;;;;20.33;14.82;;;11.10;99.90;;;;;;5009712;28;20021;-50
2024/02/18 10:36:09;;;;;;;18.00;13.75;;;11.10;99.90;;;;;;4991675;28;20086;-53
2024/02/18 10:38:58;;;;;;;19.15;14.05;;;11.00;99.90;;;;;;5009071;28;20061;-49
2024/02/18 10:41:37;;;;;;;20.15;13.27;;;11.00;99.90;;;;;;5009062;28;20092;-46
2024/02/18 10:44:13;;;;;;;16.20;12.98;;;11.00;99.90;;;;;;5009229;28;20504;-45
2024/02/18 10:46:41;;;;;;;20.65;13.48;;;10.90;99.90;;;;;;5008769;28;20118;-51
2024/02/18 10:49:30;;;;;;;17.20;13.23;;;10.90;99.90;;;;;;5009347;28;20029;-51
2024/02/18 10:52:13;;;;;;;17.98;11.52;;;10.90;99.90;;;;;;5009250;28;20061;-50
2024/02/18 10:55:09;;;;;;;16.55;9.48;;;10.80;99.90;;;;;;5009602;28;20030;-47
2024/02/18 10:57:41;;;;;;;17.52;10.82;;;10.80;99.90;;;;;;5009630;28;20049;-46
2024/02/18 11:00:10;;;;;;;13.50;9.68;;;10.80;99.90;;;;;;5009991;28;20040;-55
2024/02/18 11:02:59;;;;;;;18.00;9.90;;;10.90;99.90;;;;;;5009460;28;20112;-46
2024/02/18 11:05:32;;;;;;;12.60;9.60;;;10.70;99.90;;;;;;5008935;28;20519;-50
2024/02/18 11:08:01;;;;;;;18.50;10.23;;;10.70;99.90;;;;;;5007349;28;20399;-51
2024/02/18 11:10:28;;;;;;;19.45;8.90;;;10.70;99.90;;;;;;5008588;28;20281;-48
2024/02/18 11:12:56;;;;;;;13.35;8.25;;;10.80;99.90;;;;;;5008893;28;20034;-52
2024/02/18 11:15:21;;;;;;;15.00;8.52;;;10.70;99.90;;;;;;5008437;28;20040;-55
2024/02/18 11:17:48;;;;;;;14.20;8.45;;;10.80;99.90;;;;;;5009262;28;20387;-48
2024/02/18 11:20:14;;;;;;;9.73;7.20;;;10.90;99.90;;;;;;5008914;28;20087;-52
2024/02/18 11:22:40;;;;;;;14.80;8.65;;;10.90;99.90;;;;;;5009922;28;20034;-50
2024/02/18 11:25:06;;;;;;;12.05;7.40;;;10.90;99.90;;;;;;5009370;28;20061;-49
2024/02/18 11:27:34;;;;;;;8.60;7.00;;;11.00;99.90;;;;;;5010271;28;20435;-51
2024/02/18 11:30:00;;;;;;;13.32;7.68;;;11.00;99.90;;;;;;5010253;28;20022;-48
2024/02/18 11:32:27;;;;;;;13.05;7.43;;;10.90;99.90;;;;;;5010532;28;20038;-50
2024/02/18 11:34:53;;;;;;;7.95;6.55;;;10.90;99.90;;;;;;5009954;28;20038;-46
2024/02/18 11:37:33;;;;;;;10.07;8.13;;;11.00;99.90;;;;;;5008718;28;20054;-51
2024/02/18 11:39:59;;;;;;;85.22;52.67;;;10.90;99.90;;;;;;5008994;28;20103;-52
2024/02/18 11:42:28;;;;;;;69.63;40.53;;;11.00;99.90;;;;;;5008577;28;20088;-47
2024/02/18 11:45:20;;;;;;;12.75;8.95;;;11.10;99.90;;;;;;5009324;28;20026;-53
2024/02/18 11:47:54;;;;;;;13.23;8.70;;;11.30;99.90;;;;;;5006889;28;20045;-49
2024/02/18 11:50:22;;;;;;;12.60;8.93;;;11.20;99.90;;;;;;5007982;28;20451;-45
2024/02/18 11:52:49;;;;;;;11.75;8.82;;;11.20;99.90;;;;;;4992516;28;20040;-49
2024/02/18 11:55:23;;;;;;;10.43;7.03;;;11.30;99.90;;;;;;5009581;28;20048;-48
2024/02/18 11:57:49;;;;;;;11.23;8.02;;;11.30;99.90;;;;;;5010262;28;20036;-57
2024/02/18 12:00:16;;;;;;;10.05;6.97;;;11.40;99.90;;;;;;5010469;28;20030;-50
2024/02/18 12:02:49;;;;;;;10.25;8.15;;;11.50;99.90;;;;;;5009907;28;20399;-49
2024/02/18 12:05:16;;;;;;;11.40;6.20;;;11.50;99.90;;;;;;4990522;28;20031;-46
2024/02/18 12:07:41;;;;;;;8.82;6.50;;;11.50;99.90;;;;;;5007401;28;20033;-50
2024/02/18 12:10:07;;;;;;;8.10;6.18;;;11.40;99.90;;;;;;5007716;28;20466;-51
2024/02/18 12:12:33;;;;;;;10.13;5.68;;;11.30;99.90;;;;;;5009462;28;20113;-51
2024/02/18 12:14:59;;;;;;;6.53;5.82;;;11.40;99.90;;;;;;5009213;28;20041;-51
2024/02/18 12:17:25;;;;;;;8.75;6.30;;;11.40;99.90;;;;;;5009198;28;20030;-48
2024/02/18 12:19:51;;;;;;;6.15;5.50;;;11.50;99.90;;;;;;5009904;28;20034;-48
2024/02/18 12:22:27;;;;;;;7.00;5.35;;;11.50;99.90;;;;;;5008501;28;20092;-47
2024/02/18 12:24:54;;;;;;;8.27;5.95;;;11.50;99.90;;;;;;5008307;28;20632;-46
2024/02/18 12:27:21;;;;;;;8.88;5.68;;;11.50;99.90;;;;;;5009626;28;20029;-51
2024/02/18 12:29:48;;;;;;;7.40;5.72;;;11.50;99.90;;;;;;5007492;28;20137;-47